createdAt,value
2019-03-24T00:00:07.549Z,4.62
2019-03-24T00:02:39.350Z,2.55
2019-03-24T00:05:09.627Z,3.22
2019-03-24T00:07:39.772Z,2.77
2019-03-24T00:10:14.808Z,2.83
2019-03-24T00:12:53.597Z,2.42
2019-03-24T00:15:26.589Z,2.42
2019-03-24T00:17:55.824Z,2.40
2019-03-24T00:20:26.064Z,2.55
2019-03-24T00:23:00.091Z,2.47
2019-03-24T00:25:30.238Z,3.30
2019-03-24T00:28:02.013Z,2.12
2019-03-24T00:30:32.255Z,2.02
2019-03-24T00:33:05.539Z,1.40
2019-03-24T00:35:37.532Z,2.75
2019-03-24T00:38:07.682Z,2.27
2019-03-24T00:40:40.061Z,3.37
2019-03-24T00:43:15.518Z,2.22
2019-03-24T00:45:45.696Z,1.90
2019-03-24T00:48:15.883Z,3.17
2019-03-24T00:50:46.125Z,2.72
2019-03-24T00:53:16.380Z,2.08
2019-03-24T00:55:46.557Z,4.17
2019-03-24T00:58:18.325Z,1.62
2019-03-24T01:00:52.853Z,2.60
2019-03-24T01:03:23.100Z,1.90
2019-03-24T01:05:53.258Z,1.72
2019-03-24T01:08:25.072Z,3.05
2019-03-24T01:10:57.647Z,2.50
2019-03-24T01:13:27.884Z,2.17
2019-03-24T01:15:58.058Z,2.45
2019-03-24T01:18:30.878Z,3.27
2019-03-24T01:21:01.119Z,1.70
2019-03-24T01:23:31.357Z,2.75
2019-03-24T01:26:01.514Z,2.85
2019-03-24T01:28:35.916Z,2.50
2019-03-24T01:31:06.087Z,2.72
2019-03-24T01:33:36.270Z,2.22
2019-03-24T01:36:06.480Z,3.47
2019-03-24T01:38:39.325Z,1.92
2019-03-24T01:41:09.503Z,2.08
2019-03-24T01:43:39.674Z,2.75
2019-03-24T01:46:09.815Z,2.58
2019-03-24T01:48:40.114Z,1.40
2019-03-24T01:51:10.282Z,1.80
2019-03-24T01:53:40.439Z,3.85
2019-03-24T01:56:11.562Z,3.17
2019-03-24T01:58:41.786Z,2.35
2019-03-24T02:01:12.033Z,1.40
2019-03-24T02:03:45.366Z,3.33
2019-03-24T02:06:17.344Z,3.20
2019-03-24T02:08:47.654Z,3.33
2019-03-24T02:11:17.826Z,2.35
2019-03-24T02:13:48.165Z,3.02
2019-03-24T02:16:20.011Z,2.17
2019-03-24T02:18:50.144Z,2.12
2019-03-24T02:21:20.299Z,2.80
2019-03-24T02:23:50.478Z,2.58
2019-03-24T02:26:20.707Z,2.12
2019-03-24T02:28:52.462Z,1.92
2019-03-24T02:31:22.640Z,2.42
2019-03-24T02:33:52.808Z,3.30
2019-03-24T02:36:23.046Z,2.60
2019-03-24T02:38:53.208Z,2.92
2019-03-24T02:41:23.445Z,3.87
2019-03-24T02:43:55.691Z,1.95
2019-03-24T02:46:32.208Z,1.67
2019-03-24T02:49:02.367Z,2.37
2019-03-24T02:51:32.540Z,3.35
2019-03-24T02:54:02.896Z,2.80
2019-03-24T02:56:33.092Z,2.47
2019-03-24T02:59:03.282Z,2.52
2019-03-24T03:01:33.480Z,2.80
2019-03-24T03:04:04.769Z,2.65
2019-03-24T03:06:34.987Z,1.77
2019-03-24T03:09:06.661Z,2.50
2019-03-24T03:11:37.896Z,1.75
2019-03-24T03:14:17.111Z,2.42
2019-03-24T03:16:47.265Z,3.40
2019-03-24T03:19:17.419Z,2.30
2019-03-24T03:21:47.588Z,1.60
2019-03-24T03:24:17.756Z,2.17
2019-03-24T03:26:49.692Z,2.33
2019-03-24T03:29:19.842Z,2.50
2019-03-24T03:31:49.995Z,1.92
2019-03-24T03:34:20.165Z,1.57
2019-03-24T03:36:52.650Z,2.30
2019-03-24T03:39:22.831Z,3.95
2019-03-24T03:41:52.985Z,2.45
2019-03-24T03:44:23.171Z,1.55
2019-03-24T03:46:53.523Z,2.70
2019-03-24T03:49:23.822Z,2.40
2019-03-24T03:51:53.980Z,2.12
2019-03-24T03:54:25.706Z,2.50
2019-03-24T03:56:57.442Z,2.30
2019-03-24T03:59:27.683Z,3.40
2019-03-24T04:01:58.007Z,1.70
2019-03-24T04:04:29.109Z,2.58
2019-03-24T04:06:59.267Z,2.55
2019-03-24T04:09:29.443Z,1.50
2019-03-24T04:11:59.631Z,1.15
2019-03-24T04:14:29.792Z,1.42
2019-03-24T04:17:07.623Z,2.10
2019-03-24T04:19:34.328Z,1.50
2019-03-24T04:22:04.510Z,2.12
2019-03-24T04:24:34.773Z,2.05
2019-03-24T04:27:05.755Z,1.70
2019-03-24T04:29:35.927Z,2.02
2019-03-24T04:32:06.076Z,1.75
2019-03-24T04:34:36.402Z,2.02
2019-03-24T04:37:07.541Z,2.67
2019-03-24T04:39:37.712Z,1.77
2019-03-24T04:42:07.890Z,1.00
2019-03-24T04:44:38.042Z,1.50
2019-03-24T04:47:16.320Z,1.80
2019-03-24T04:49:40.145Z,1.70
2019-03-24T04:52:12.243Z,1.90
2019-03-24T04:54:42.397Z,1.80
2019-03-24T04:57:12.574Z,1.87
2019-03-24T04:59:42.720Z,1.85
2019-03-24T05:02:12.861Z,2.33
2019-03-24T05:04:43.022Z,2.30
2019-03-24T05:07:16.226Z,2.12
2019-03-24T05:09:46.724Z,1.52
2019-03-24T05:12:16.867Z,1.40
2019-03-24T05:14:53.171Z,1.30
2019-03-24T05:17:27.264Z,1.40
2019-03-24T05:19:55.240Z,1.37
2019-03-24T05:22:25.423Z,2.27
2019-03-24T05:24:55.592Z,1.40
2019-03-24T05:27:25.760Z,1.87
2019-03-24T05:29:55.939Z,1.72
2019-03-24T05:32:29.007Z,2.45
2019-03-24T05:35:00.360Z,1.40
2019-03-24T05:37:30.546Z,1.15
2019-03-24T05:40:00.715Z,1.72
2019-03-24T05:42:30.880Z,1.67
2019-03-24T05:45:02.936Z,2.27
2019-03-24T05:47:37.609Z,2.70
2019-03-24T05:50:10.655Z,2.12
2019-03-24T05:52:40.810Z,1.50
2019-03-24T05:55:11.147Z,2.08
2019-03-24T05:57:49.004Z,1.90
2019-03-24T06:00:19.167Z,1.85
2019-03-24T06:02:49.413Z,1.55
2019-03-24T06:05:19.574Z,2.17
2019-03-24T06:07:49.830Z,2.20
2019-03-24T06:10:20.903Z,2.45
2019-03-24T06:12:51.066Z,1.87
2019-03-24T06:15:21.223Z,1.90
2019-03-24T06:17:51.382Z,3.15
2019-03-24T06:20:21.527Z,1.90
2019-03-24T06:22:53.252Z,2.00
2019-03-24T06:25:23.411Z,2.02
2019-03-24T06:27:53.605Z,2.17
2019-03-24T06:30:26.551Z,2.00
2019-03-24T06:32:56.787Z,1.47
2019-03-24T06:35:27.001Z,1.82
2019-03-24T06:37:57.172Z,1.87
2019-03-24T06:40:27.331Z,1.85
2019-03-24T06:42:58.783Z,1.95
2019-03-24T06:45:32.304Z,4.28
2019-03-24T06:48:02.483Z,1.80
2019-03-24T06:50:32.651Z,1.67
2019-03-24T06:53:02.808Z,1.87
2019-03-24T06:55:38.789Z,2.55
2019-03-24T06:58:10.622Z,2.47
2019-03-24T07:00:40.867Z,4.25
2019-03-24T07:03:11.155Z,2.45
2019-03-24T07:05:43.278Z,2.37
2019-03-24T07:08:13.444Z,1.85
2019-03-24T07:10:43.621Z,2.05
2019-03-24T07:13:13.972Z,1.95
2019-03-24T07:15:44.148Z,2.33
2019-03-24T07:18:14.314Z,2.60
2019-03-24T07:20:44.482Z,2.67
2019-03-24T07:23:17.142Z,1.65
2019-03-24T07:25:47.935Z,2.17
2019-03-24T07:28:18.115Z,1.77
2019-03-24T07:30:48.313Z,2.00
2019-03-24T07:33:23.273Z,1.87
2019-03-24T07:35:53.478Z,2.10
2019-03-24T07:38:23.636Z,2.10
2019-03-24T07:40:53.881Z,2.27
2019-03-24T07:43:29.408Z,1.50
2019-03-24T07:45:59.575Z,3.30
2019-03-24T07:48:29.743Z,2.10
2019-03-24T07:51:01.542Z,2.02
2019-03-24T07:53:39.770Z,2.00
2019-03-24T07:56:10.007Z,2.95
2019-03-24T07:58:40.156Z,1.80
2019-03-24T08:01:11.493Z,2.37
2019-03-24T08:03:41.671Z,2.50
2019-03-24T08:06:13.697Z,1.70
2019-03-24T08:08:44.414Z,1.87
2019-03-24T08:11:16.464Z,3.00
2019-03-24T08:13:53.802Z,1.90
2019-03-24T08:16:21.639Z,1.70
2019-03-24T08:18:58.876Z,3.37
2019-03-24T08:21:29.102Z,2.40
2019-03-24T08:24:01.925Z,2.10
2019-03-24T08:26:32.078Z,2.08
2019-03-24T08:29:04.674Z,1.60
2019-03-24T08:31:39.503Z,1.50
2019-03-24T08:34:09.668Z,2.45
2019-03-24T08:36:42.324Z,2.42
2019-03-24T08:39:12.662Z,2.08
2019-03-24T08:41:46.449Z,2.60
2019-03-24T08:44:17.193Z,1.65
2019-03-24T08:46:47.502Z,1.72
2019-03-24T08:49:17.690Z,2.55
2019-03-24T08:51:47.920Z,2.37
2019-03-24T08:54:32.395Z,2.33
2019-03-24T08:57:05.709Z,1.65
2019-03-24T08:59:36.003Z,3.37
2019-03-24T09:02:10.640Z,1.42
2019-03-24T09:04:43.253Z,1.65
2019-03-24T09:07:13.540Z,1.82
2019-03-24T09:09:55.086Z,2.40
2019-03-24T09:12:25.260Z,2.08
2019-03-24T09:14:55.491Z,2.20
2019-03-24T09:17:25.977Z,2.17
2019-03-24T09:19:56.155Z,1.30
2019-03-24T09:22:26.314Z,1.17
2019-03-24T09:24:56.504Z,1.80
2019-03-24T09:27:26.716Z,2.30
2019-03-24T09:29:56.871Z,2.62
2019-03-24T09:32:27.029Z,2.77
2019-03-24T09:34:57.351Z,2.12
2019-03-24T09:37:28.686Z,3.62
2019-03-24T09:39:59.027Z,1.57
2019-03-24T09:42:30.355Z,1.82
2019-03-24T09:45:00.530Z,1.37
2019-03-24T09:47:31.684Z,2.87
2019-03-24T09:50:04.174Z,3.33
2019-03-24T09:52:34.594Z,2.17
2019-03-24T09:55:07.908Z,2.33
2019-03-24T09:57:39.790Z,1.65
2019-03-24T10:00:10.441Z,2.45
2019-03-24T10:02:40.602Z,1.67
2019-03-24T10:05:10.906Z,1.50
2019-03-24T10:07:41.132Z,1.95
2019-03-24T10:10:14.966Z,2.33
2019-03-24T10:12:45.705Z,3.33
2019-03-24T10:15:15.946Z,1.10
2019-03-24T10:17:47.860Z,2.05
2019-03-24T10:20:18.014Z,1.92
2019-03-24T10:22:48.248Z,1.20
2019-03-24T10:25:18.418Z,1.47
2019-03-24T10:27:48.662Z,1.80
2019-03-24T10:30:19.952Z,4.20
2019-03-24T10:32:50.151Z,2.22
2019-03-24T10:35:20.326Z,1.42
2019-03-24T10:37:53.459Z,1.47
2019-03-24T10:40:28.478Z,3.10
2019-03-24T10:42:58.734Z,1.12
2019-03-24T10:45:30.608Z,1.25
2019-03-24T10:48:00.775Z,3.15
2019-03-24T10:50:32.501Z,2.08
2019-03-24T10:53:02.660Z,2.62
2019-03-24T10:55:32.818Z,1.60
2019-03-24T10:58:02.996Z,1.82
2019-03-24T11:00:41.999Z,1.70
2019-03-24T11:03:16.782Z,1.30
2019-03-24T11:05:46.936Z,2.00
2019-03-24T11:08:36.082Z,1.40
2019-03-24T11:11:06.343Z,1.55
2019-03-24T11:13:41.030Z,1.95
2019-03-24T11:16:11.222Z,1.65
2019-03-24T11:18:41.406Z,1.92
2019-03-24T11:21:17.082Z,1.32
2019-03-24T11:23:49.733Z,1.25
2019-03-24T11:26:19.993Z,2.25
2019-03-24T11:28:51.328Z,1.22
2019-03-24T11:31:25.518Z,2.12
2019-03-24T11:33:55.687Z,1.70
2019-03-24T11:36:27.476Z,3.30
2019-03-24T11:38:59.164Z,1.62
2019-03-24T11:41:29.446Z,2.12
2019-03-24T11:43:59.600Z,1.22
2019-03-24T11:46:32.310Z,1.10
2019-03-24T11:49:02.624Z,1.72
2019-03-24T11:51:37.372Z,3.00
2019-03-24T11:54:07.714Z,1.92
2019-03-24T11:56:37.992Z,1.47
2019-03-24T11:59:08.154Z,1.55
2019-03-24T12:01:40.252Z,1.90
2019-03-24T12:04:12.040Z,1.77
2019-03-24T12:06:42.315Z,1.75
2019-03-24T12:09:15.519Z,2.40
2019-03-24T12:11:45.673Z,1.30
2019-03-24T12:14:15.842Z,1.80
2019-03-24T12:16:46.123Z,1.87
2019-03-24T12:19:16.284Z,1.30
2019-03-24T12:21:46.438Z,1.00
2019-03-24T12:24:16.592Z,1.15
2019-03-24T12:26:46.755Z,2.02
2019-03-24T12:29:16.933Z,2.75
2019-03-24T12:31:47.100Z,1.42
2019-03-24T12:34:17.334Z,1.70
2019-03-24T12:36:47.509Z,2.42
2019-03-24T12:39:20.739Z,2.42
2019-03-24T12:41:50.896Z,1.35
2019-03-24T12:44:21.137Z,1.62
2019-03-24T12:46:53.288Z,1.60
2019-03-24T12:49:23.636Z,1.40
2019-03-24T12:51:53.806Z,1.90
2019-03-24T12:54:25.485Z,1.05
2019-03-24T12:56:55.854Z,1.10
2019-03-24T12:59:26.012Z,2.98
2019-03-24T13:01:56.194Z,1.30
2019-03-24T13:04:26.442Z,1.95
2019-03-24T13:06:57.957Z,2.70
2019-03-24T13:09:28.210Z,1.57
2019-03-24T13:12:02.612Z,1.70
2019-03-24T13:14:32.786Z,2.02
2019-03-24T13:17:04.114Z,1.82
2019-03-24T13:19:36.158Z,1.95
2019-03-24T13:22:06.466Z,1.05
2019-03-24T13:24:36.670Z,1.27
2019-03-24T13:27:09.648Z,1.35
2019-03-24T13:29:39.863Z,1.92
2019-03-24T13:32:10.030Z,1.57
2019-03-24T13:34:40.233Z,1.55
2019-03-24T13:37:13.223Z,1.90
2019-03-24T13:39:43.364Z,1.22
2019-03-24T13:42:15.423Z,1.12
2019-03-24T13:44:45.700Z,1.72
2019-03-24T13:47:15.904Z,1.27
2019-03-24T13:49:47.690Z,1.02
2019-03-24T13:52:19.562Z,1.60
2019-03-24T13:54:49.866Z,1.40
2019-03-24T13:57:20.618Z,1.65
2019-03-24T13:59:50.862Z,1.10
2019-03-24T14:02:22.704Z,1.05
2019-03-24T14:04:55.361Z,1.20
2019-03-24T14:07:25.606Z,2.15
2019-03-24T14:09:55.786Z,1.40
2019-03-24T14:12:28.533Z,1.45
2019-03-24T14:15:01.438Z,1.55
2019-03-24T14:17:33.304Z,1.32
2019-03-24T14:20:06.092Z,1.30
2019-03-24T14:22:39.428Z,1.47
2019-03-24T14:25:09.913Z,1.00
2019-03-24T14:27:40.094Z,1.85
2019-03-24T14:30:14.121Z,1.20
2019-03-24T14:32:44.531Z,1.20
2019-03-24T14:35:16.951Z,1.10
2019-03-24T14:37:47.186Z,1.55
2019-03-24T14:40:20.604Z,1.15
2019-03-24T14:42:51.883Z,0.90
2019-03-24T14:45:22.390Z,1.20
2019-03-24T14:48:06.103Z,1.00
2019-03-24T14:50:36.265Z,1.25
2019-03-24T14:53:06.528Z,1.37
2019-03-24T14:55:36.952Z,1.77
2019-03-24T14:58:07.196Z,1.82
2019-03-24T15:00:43.047Z,1.90
2019-03-24T15:03:13.698Z,1.10
2019-03-24T15:05:43.860Z,1.10
2019-03-24T15:08:15.901Z,1.40
2019-03-24T15:10:46.213Z,1.02
2019-03-24T15:13:18.889Z,1.32
2019-03-24T15:15:49.173Z,1.25
2019-03-24T15:18:19.347Z,1.72
2019-03-24T15:20:49.605Z,1.72
2019-03-24T15:23:21.858Z,1.65
2019-03-24T15:25:52.013Z,1.50
2019-03-24T15:28:23.219Z,1.30
2019-03-24T15:30:55.646Z,1.55
2019-03-24T15:33:25.829Z,1.30
2019-03-24T15:35:55.988Z,1.02
2019-03-24T15:38:28.556Z,1.17
2019-03-24T15:40:58.878Z,1.10
2019-03-24T15:43:30.656Z,0.90
2019-03-24T15:46:02.720Z,1.90
2019-03-24T15:48:34.365Z,1.00
2019-03-24T15:51:04.818Z,1.42
2019-03-24T15:53:36.632Z,1.10
2019-03-24T15:56:07.105Z,1.32
2019-03-24T15:58:37.454Z,1.10
2019-03-24T16:01:09.590Z,2.35
2019-03-24T16:03:39.866Z,2.40
2019-03-24T16:06:12.525Z,1.30
2019-03-24T16:08:42.675Z,1.10
2019-03-24T16:11:12.862Z,1.30
2019-03-24T16:13:44.132Z,1.85
2019-03-24T16:16:15.247Z,1.22
2019-03-24T16:18:45.447Z,1.32
2019-03-24T16:21:23.435Z,1.70
2019-03-24T16:23:54.776Z,3.08
2019-03-24T16:26:27.783Z,0.88
2019-03-24T16:28:57.974Z,1.35
2019-03-24T16:31:28.176Z,1.55
2019-03-24T16:33:58.356Z,1.20
2019-03-24T16:36:29.154Z,1.15
2019-03-24T16:39:03.855Z,1.27
2019-03-24T16:41:33.140Z,1.10
2019-03-24T16:44:03.460Z,2.08
2019-03-24T16:46:36.508Z,1.00
2019-03-24T16:49:06.744Z,1.60
2019-03-24T16:51:38.729Z,2.35
2019-03-24T16:54:10.837Z,2.42
2019-03-24T16:56:41.032Z,1.67
2019-03-24T16:59:11.243Z,2.05
2019-03-24T17:01:41.398Z,1.80
2019-03-24T17:04:11.564Z,2.15
2019-03-24T17:06:41.820Z,2.08
2019-03-24T17:09:12.069Z,1.62
2019-03-24T17:11:42.298Z,1.52
2019-03-24T17:14:12.488Z,1.62
2019-03-24T17:16:42.695Z,1.37
2019-03-24T17:19:12.849Z,1.85
2019-03-24T17:21:49.818Z,1.05
2019-03-24T17:24:16.232Z,2.10
2019-03-24T17:26:46.596Z,2.58
2019-03-24T17:29:17.013Z,1.95
2019-03-24T17:31:47.220Z,1.40
2019-03-24T17:34:17.643Z,1.47
2019-03-24T17:36:47.814Z,2.40
2019-03-24T17:39:18.065Z,1.45
2019-03-24T17:41:48.393Z,2.92
2019-03-24T17:44:18.555Z,2.92
2019-03-24T17:46:48.728Z,3.20
2019-03-24T17:49:18.943Z,1.62
2019-03-24T17:52:00.686Z,2.90
2019-03-24T17:54:25.170Z,3.40
2019-03-24T17:56:58.454Z,3.70
2019-03-24T17:59:28.955Z,4.85
2019-03-24T18:01:59.851Z,4.80
2019-03-24T18:04:31.084Z,4.50
2019-03-24T18:07:01.265Z,5.22
2019-03-24T18:09:31.432Z,4.00
2019-03-24T18:12:01.721Z,4.70
2019-03-24T18:14:32.365Z,5.00
2019-03-24T18:17:05.699Z,5.85
2019-03-24T18:19:35.932Z,5.65
2019-03-24T18:22:11.503Z,4.47
2019-03-24T18:24:38.029Z,5.28
2019-03-24T18:27:08.338Z,3.95
2019-03-24T18:29:38.869Z,4.55
2019-03-24T18:32:09.381Z,4.75
2019-03-24T18:34:39.676Z,7.40
2019-03-24T18:37:09.873Z,4.67
2019-03-24T18:39:40.144Z,3.95
2019-03-24T18:42:10.402Z,3.65
2019-03-24T18:44:41.050Z,5.83
2019-03-24T18:47:11.547Z,5.55
2019-03-24T18:49:41.713Z,5.05
2019-03-24T18:52:22.120Z,5.08
2019-03-24T18:54:43.871Z,3.87
2019-03-24T18:57:15.295Z,4.25
2019-03-24T18:59:45.482Z,3.60
2019-03-24T19:02:16.061Z,4.37
2019-03-24T19:04:47.293Z,4.78
2019-03-24T19:07:18.560Z,2.90
2019-03-24T19:09:50.322Z,4.53
2019-03-24T19:12:20.539Z,3.83
2019-03-24T19:14:52.566Z,3.58
2019-03-24T19:17:26.797Z,5.12
2019-03-24T19:19:59.027Z,1.80
2019-03-24T19:22:33.766Z,2.65
2019-03-24T19:25:03.639Z,2.52
2019-03-24T19:27:34.144Z,3.55
2019-03-24T19:30:07.786Z,3.60
2019-03-24T19:32:38.304Z,2.83
2019-03-24T19:35:08.887Z,6.40
2019-03-24T19:37:39.258Z,2.30
2019-03-24T19:40:26.307Z,2.60
2019-03-24T19:42:59.372Z,3.40
2019-03-24T19:45:29.755Z,3.00
2019-03-24T19:48:00.122Z,2.72
2019-03-24T19:50:31.539Z,2.22
2019-03-24T19:53:02.095Z,3.12
2019-03-24T19:55:32.296Z,4.47
2019-03-24T19:58:02.541Z,2.90
2019-03-24T20:00:32.701Z,2.45
2019-03-24T20:03:06.680Z,3.25
2019-03-24T20:05:38.574Z,3.15
2019-03-24T20:08:08.768Z,4.35
2019-03-24T20:10:44.603Z,2.67
2019-03-24T20:13:15.747Z,2.62
2019-03-24T20:15:45.930Z,3.62
2019-03-24T20:18:16.213Z,3.02
2019-03-24T20:20:46.394Z,3.87
2019-03-24T20:23:16.598Z,2.40
2019-03-24T20:25:48.390Z,2.87
2019-03-24T20:28:18.562Z,3.12
2019-03-24T20:30:48.919Z,2.70
2019-03-24T20:33:19.074Z,2.47
2019-03-24T20:35:50.842Z,2.90
2019-03-24T20:38:22.266Z,2.85
2019-03-24T20:40:52.492Z,3.65
2019-03-24T20:43:22.790Z,2.22
2019-03-24T20:45:54.568Z,2.08
2019-03-24T20:48:24.806Z,3.65
2019-03-24T20:50:59.238Z,2.12
2019-03-24T20:53:29.406Z,2.30
2019-03-24T20:55:59.635Z,2.17
2019-03-24T20:58:30.113Z,2.50
2019-03-24T21:01:00.302Z,2.60
2019-03-24T21:03:30.440Z,2.25
2019-03-24T21:06:01.752Z,3.25
2019-03-24T21:08:32.882Z,2.40
2019-03-24T21:11:04.128Z,2.50
2019-03-24T21:13:35.558Z,3.77
2019-03-24T21:16:05.718Z,3.25
2019-03-24T21:18:36.689Z,2.50
2019-03-24T21:21:07.914Z,3.58
2019-03-24T21:23:40.080Z,2.42
2019-03-24T21:26:11.894Z,2.95
2019-03-24T21:28:42.049Z,3.65
2019-03-24T21:31:12.407Z,1.75
2019-03-24T21:33:42.585Z,2.35
2019-03-24T21:36:12.725Z,4.42
2019-03-24T21:38:42.899Z,3.52
2019-03-24T21:41:15.198Z,2.83
2019-03-24T21:43:45.478Z,2.40
2019-03-24T21:46:15.621Z,3.67
2019-03-24T21:48:45.926Z,2.90
2019-03-24T21:51:16.072Z,2.05
2019-03-24T21:53:46.262Z,1.92
2019-03-24T21:56:16.633Z,1.90
2019-03-24T21:58:47.491Z,2.40
2019-03-24T22:01:17.651Z,3.10
2019-03-24T22:03:49.728Z,2.45
2019-03-24T22:06:19.920Z,3.10
2019-03-24T22:08:50.099Z,1.85
2019-03-24T22:11:20.482Z,2.40
2019-03-24T22:13:50.692Z,3.37
2019-03-24T22:16:20.849Z,1.98
2019-03-24T22:18:51.003Z,1.87
2019-03-24T22:21:23.948Z,1.95
2019-03-24T22:23:55.728Z,1.80
2019-03-24T22:26:25.870Z,1.80
2019-03-24T22:28:56.069Z,2.40
2019-03-24T22:31:26.332Z,3.25
2019-03-24T22:33:56.529Z,2.90
2019-03-24T22:36:26.787Z,1.67
2019-03-24T22:38:56.917Z,1.80
2019-03-24T22:41:27.158Z,2.33
2019-03-24T22:43:59.984Z,2.62
2019-03-24T22:46:30.132Z,2.00
2019-03-24T22:49:00.260Z,2.40
2019-03-24T22:51:32.972Z,1.67
2019-03-24T22:54:03.665Z,1.75
2019-03-24T22:56:34.090Z,2.12
2019-03-24T22:59:04.350Z,2.08
2019-03-24T23:01:36.984Z,2.20
2019-03-24T23:04:07.709Z,2.60
2019-03-24T23:06:37.869Z,2.85
2019-03-24T23:09:09.290Z,2.40
2019-03-24T23:11:39.748Z,2.15
2019-03-24T23:14:09.979Z,2.30
2019-03-24T23:16:40.250Z,2.72
2019-03-24T23:19:10.391Z,1.92
2019-03-24T23:21:40.551Z,2.10
2019-03-24T23:24:15.498Z,1.50
2019-03-24T23:26:42.655Z,1.77
2019-03-24T23:29:13.000Z,2.52
2019-03-24T23:31:44.158Z,2.17
2019-03-24T23:34:14.312Z,3.52
2019-03-24T23:36:44.491Z,2.40
2019-03-24T23:39:16.315Z,1.60
2019-03-24T23:41:46.496Z,1.75
2019-03-24T23:44:16.635Z,2.67
2019-03-24T23:46:46.786Z,1.60
2019-03-24T23:49:19.116Z,1.65
2019-03-24T23:51:49.260Z,2.30
2019-03-24T23:54:26.883Z,1.75
2019-03-24T23:56:51.282Z,1.72
2019-03-24T23:59:21.431Z,3.52
